Lake Fork, ID (83635)

6:29 PM MDT on August 27, 2016 (GMT -0600)
McCall | | Change Station

Elev 5020 ft 44.89 °N, 116.10 °W | Updated 38 minutes ago

Clear
Clear
79 °F
Feels Like 79 °F
N
6
Wind Variable Wind from Variable

Today
High -- | Low -- °F
--% Chance of Precip.
Yesterday
High -- | Low -- °F
Precip. -- in
Pressure 29.89 in
Visibility 10.0 miles
Clouds Clear
Dew Point 29 °F
Humidity 16%
Rainfall 0.00 in
Snow Depth Not available.
7:01 AM 8:29 PM
Waning Crescent, 20% visible
METAR KMYL 272351Z AUTO VRB05KT 10SM CLR 26/M02 A2999 RMK AO2 SLP120 T02611017 10267 20194 56006
Pressure 29.89 in
Visibility 10.0 miles
Clouds Clear
Dew Point 29 °F
Humidity 16%
Rainfall 0.00 in
Snow Depth Not available.
7:01 AM 8:29 PM
Waning Crescent, 20% visible
METAR KMYL 272351Z AUTO VRB05KT 10SM CLR 26/M02 A2999 RMK AO2 SLP120 T02611017 10267 20194 56006

10-Day Weather Forecast

Almanac

Astronomy

Aug. 27, 2016 Rise Set
Actual Time
Civil Twilight
Nautical Twilight
Astronomical Twilight
Moon
Length of Visible Light
Length of Day
Tomorrow will be .
, % of the Moon is Illuminated

Today's Extremes

State Highs State Lows

Community

WunderPhotos

Upload Photos

1,935,472 photos uploaded!

WunderBlog® & News

Nearby

Air Quality

  Air Quality AQ Index Pollutant
Not available.

Snow Depth

Station Depth Elevation

Earthquake Activity

City Distance Mag. Time & Date
Minimum magnitude displayed is 2.5.

Coastal Water Temperatures

Place Temperature

Stations

Nearby Weather Stations

Station Location Temp. Windchill Dew Point Humidity Wind Precip. Elev Updated Type
                   

Watches & Warnings

There are currently no watches in effect.